createdAt,value
2022-11-17T12:29:57.273Z,8.64
2022-11-17T12:32:48.840Z,8.71
2022-11-17T12:35:28.991Z,8.71
2022-11-17T12:38:30.976Z,8.73
2022-11-17T12:40:57.571Z,8.85
2022-11-17T12:43:26.252Z,8.88
2022-11-17T12:45:52.897Z,8.85
2022-11-17T12:48:39.703Z,8.93
2022-11-17T12:51:21.724Z,9.00
2022-11-17T12:54:46.762Z,8.98
2022-11-17T12:57:32.127Z,8.99
2022-11-17T13:00:29.513Z,9.00
2022-11-17T13:03:10.778Z,9.01
2022-11-17T13:05:38.195Z,8.97
2022-11-17T13:08:14.765Z,9.00
2022-11-17T13:10:41.861Z,9.04
2022-11-17T13:13:13.618Z,9.05
2022-11-17T13:15:42.363Z,9.00
2022-11-17T13:18:33.024Z,8.98
2022-11-17T13:21:00.570Z,8.98
2022-11-17T13:23:32.345Z,8.90
2022-11-17T13:26:37.580Z,8.77
2022-11-17T13:29:05.318Z,8.81
2022-11-17T13:31:32.822Z,8.74
2022-11-17T13:34:07.312Z,8.63
2022-11-17T13:36:34.372Z,8.65
2022-11-17T13:39:02.351Z,8.70
2022-11-17T13:41:38.701Z,8.69
2022-11-17T13:44:08.683Z,8.76
2022-11-17T13:46:36.225Z,8.71
2022-11-17T13:49:38.250Z,8.75
2022-11-17T13:52:05.755Z,8.81
2022-11-17T13:54:33.050Z,8.93
2022-11-17T13:57:07.505Z,9.00
2022-11-17T13:59:36.187Z,9.05
2022-11-17T14:02:20.919Z,9.05
2022-11-17T14:05:26.580Z,9.08
2022-11-17T14:07:56.856Z,9.10
2022-11-17T14:10:28.091Z,9.03
2022-11-17T14:13:19.663Z,9.05
2022-11-17T14:15:53.810Z,9.07
2022-11-17T14:18:23.579Z,9.11
2022-11-17T14:21:04.583Z,9.05
2022-11-17T14:23:31.170Z,9.13
2022-11-17T14:25:57.763Z,9.15
2022-11-17T14:28:24.496Z,9.18
2022-11-17T14:30:52.867Z,9.21
2022-11-17T14:33:19.739Z,9.26
2022-11-17T14:35:50.541Z,9.27
2022-11-17T14:38:19.575Z,9.30
2022-11-17T14:40:46.604Z,9.34
2022-11-17T14:43:13.222Z,9.36
2022-11-17T14:45:39.809Z,9.23
2022-11-17T14:48:06.623Z,9.27
2022-11-17T14:50:33.268Z,9.27
2022-11-17T14:53:00.197Z,9.28
2022-11-17T14:55:27.143Z,9.28
2022-11-17T14:57:54.111Z,9.27
2022-11-17T15:00:21.542Z,9.26
2022-11-17T15:02:48.664Z,9.26
2022-11-17T15:05:15.330Z,9.23
2022-11-17T15:07:42.493Z,9.22
2022-11-17T15:10:09.706Z,9.18
2022-11-17T15:12:36.682Z,9.16
2022-11-17T15:15:04.508Z,9.17
2022-11-17T15:17:31.200Z,9.08
2022-11-17T15:19:58.000Z,9.03
